Time;durP1;ratioP1;P1;durP2;ratioP2;P2;SDS_P1;SDS_P2;PMS_P1;PMS_P2;Temp;Humidity;BMP_temperature;BMP_pressure;BME280_temperature;BME280_humidity;BME280_pressure;Samples;Min_cycle;Max_cycle;Signal;HPM_P1;HPM_P2
2020/12/21 00:00:46;;;;;;;20.15;12.55;;;;;;;;;;5114031;28;20024;-75
2020/12/21 00:03:12;;;;;;;20.58;12.40;;;;;;;;;;5113902;28;20020;-74
2020/12/21 00:05:38;;;;;;;20.25;13.20;;;;;;;;;;5113763;28;20046;-74
2020/12/21 00:08:04;;;;;;;18.90;13.07;;;;;;;;;;5095424;28;20390;-74
2020/12/21 00:10:30;;;;;;;18.50;12.40;;;;;;;;;;5113789;28;20443;-74
2020/12/21 00:12:57;;;;;;;18.90;12.10;;;;;;;;;;5113856;28;20027;-72
2020/12/21 00:15:24;;;;;;;20.98;14.23;;;;;;;;;;5095391;28;20016;-74
2020/12/21 00:17:50;;;;;;;23.10;13.55;;;;;;;;;;5113647;28;20018;-72
2020/12/21 00:20:16;;;;;;;21.48;13.40;;;;;;;;;;5095335;28;20032;-74
2020/12/21 00:22:42;;;;;;;21.15;13.57;;;;;;;;;;5113394;28;20039;-74
2020/12/21 00:25:08;;;;;;;20.15;13.32;;;;;;;;;;5113407;28;20050;-74
2020/12/21 00:27:34;;;;;;;20.42;12.68;;;;;;;;;;5113503;28;20031;-72
2020/12/21 00:30:00;;;;;;;21.88;13.00;;;;;;;;;;5113272;28;20019;-73
2020/12/21 00:32:26;;;;;;;20.38;12.38;;;;;;;;;;5113200;28;20030;-71
2020/12/21 00:34:52;;;;;;;21.08;13.68;;;;;;;;;;5113234;28;20062;-71
2020/12/21 00:37:18;;;;;;;21.15;13.15;;;;;;;;;;5113215;28;20027;-74
2020/12/21 00:39:44;;;;;;;19.02;13.18;;;;;;;;;;5113188;28;20061;-75
2020/12/21 00:42:10;;;;;;;21.65;13.57;;;;;;;;;;5112903;28;20073;-74
2020/12/21 00:44:36;;;;;;;19.33;12.68;;;;;;;;;;5082778;28;20089;-69
2020/12/21 00:47:02;;;;;;;22.52;14.50;;;;;;;;;;5092094;28;20044;-71
2020/12/21 00:49:28;;;;;;;21.48;14.13;;;;;;;;;;5092471;28;20023;-70
2020/12/21 00:51:54;;;;;;;20.27;13.75;;;;;;;;;;5092523;28;20095;-70
2020/12/21 00:54:20;;;;;;;22.05;13.73;;;;;;;;;;5092570;28;20020;-69
2020/12/21 00:56:46;;;;;;;23.67;14.05;;;;;;;;;;5092503;28;20025;-73
2020/12/21 00:59:12;;;;;;;22.67;14.70;;;;;;;;;;5074015;28;20028;-72
2020/12/21 01:01:39;;;;;;;21.30;13.85;;;;;;;;;;5074002;28;20294;-74
2020/12/21 01:04:05;;;;;;;21.15;12.43;;;;;;;;;;5092205;28;20580;-75
2020/12/21 01:06:32;;;;;;;24.25;13.27;;;;;;;;;;5073789;28;20038;-73
2020/12/21 01:08:59;;;;;;;21.02;13.48;;;;;;;;;;5091343;28;20032;-73
2020/12/21 01:11:28;;;;;;;45.50;14.30;;;;;;;;;;5092010;28;20024;-70
2020/12/21 01:13:54;;;;;;;32.08;15.35;;;;;;;;;;5073848;28;20105;-71
2020/12/21 01:16:20;;;;;;;32.97;14.48;;;;;;;;;;5073975;28;20027;-73
2020/12/21 01:18:46;;;;;;;31.27;14.88;;;;;;;;;;5092292;28;20478;-73
2020/12/21 01:21:14;;;;;;;21.38;14.23;;;;;;;;;;5092074;28;20024;-73
2020/12/21 01:23:40;;;;;;;21.40;13.43;;;;;;;;;;5092015;28;20050;-71
2020/12/21 01:26:06;;;;;;;22.77;14.55;;;;;;;;;;5092051;28;20092;-70
2020/12/21 01:28:32;;;;;;;24.90;14.05;;;;;;;;;;5091988;28;20082;-72
2020/12/21 01:30:58;;;;;;;22.50;13.48;;;;;;;;;;5091762;28;20479;-69
2020/12/21 01:33:24;;;;;;;25.23;13.68;;;;;;;;;;5073457;28;20491;-71
2020/12/21 01:35:50;;;;;;;22.95;14.60;;;;;;;;;;5073594;28;20463;-71
2020/12/21 01:38:16;;;;;;;20.98;13.68;;;;;;;;;;5091619;28;20532;-71
2020/12/21 01:40:42;;;;;;;23.10;13.68;;;;;;;;;;5073658;28;20051;-70
2020/12/21 01:43:08;;;;;;;20.05;13.30;;;;;;;;;;5091640;28;20032;-72
2020/12/21 01:45:34;;;;;;;22.58;13.85;;;;;;;;;;5093412;28;20076;-71
2020/12/21 01:48:00;;;;;;;25.33;13.80;;;;;;;;;;5112045;28;20027;-70
2020/12/21 01:50:26;;;;;;;21.65;13.82;;;;;;;;;;5093668;28;20106;-71
2020/12/21 01:52:53;;;;;;;20.85;14.57;;;;;;;;;;5111683;28;20482;-71
2020/12/21 01:55:19;;;;;;;21.15;13.10;;;;;;;;;;5093575;28;20080;-69
2020/12/21 01:57:45;;;;;;;22.75;13.80;;;;;;;;;;5093461;28;20359;-71
2020/12/21 02:00:11;;;;;;;22.08;14.10;;;;;;;;;;5093657;28;20028;-70
2020/12/21 02:02:38;;;;;;;23.05;13.80;;;;;;;;;;5093745;28;20055;-71
2020/12/21 02:05:04;;;;;;;19.40;13.15;;;;;;;;;;5111937;28;20023;-70
2020/12/21 02:07:30;;;;;;;31.67;13.98;;;;;;;;;;5105857;28;20032;-70
2020/12/21 02:09:57;;;;;;;21.48;13.45;;;;;;;;;;5091388;28;20084;-70
2020/12/21 02:12:23;;;;;;;21.30;14.20;;;;;;;;;;5091241;28;20020;-70
2020/12/21 02:14:49;;;;;;;20.83;13.88;;;;;;;;;;5091270;28;20021;-70
2020/12/21 02:17:15;;;;;;;19.67;13.27;;;;;;;;;;5091405;28;20073;-72
2020/12/21 02:19:41;;;;;;;23.95;15.18;;;;;;;;;;5092445;28;20161;-73
2020/12/21 02:22:11;;;;;;;23.70;13.70;;;;;;;;;;5095454;28;20027;-72
2020/12/21 02:24:37;;;;;;;23.38;14.80;;;;;;;;;;5077072;28;20053;-70
2020/12/21 02:27:03;;;;;;;20.20;13.60;;;;;;;;;;5077091;28;20028;-71
2020/12/21 02:29:29;;;;;;;22.67;14.10;;;;;;;;;;5102807;28;20031;-70
2020/12/21 02:31:55;;;;;;;25.00;13.90;;;;;;;;;;5115654;28;20011;-72
2020/12/21 02:34:24;;;;;;;23.40;14.88;;;;;;;;;;5115914;28;20027;-71
2020/12/21 02:36:50;;;;;;;20.58;13.60;;;;;;;;;;5115522;28;20020;-69
2020/12/21 02:39:16;;;;;;;24.58;14.38;;;;;;;;;;5115551;28;20531;-70
2020/12/21 02:41:42;;;;;;;24.92;13.45;;;;;;;;;;5115411;28;20027;-69
2020/12/21 02:44:08;;;;;;;36.00;13.80;;;;;;;;;;5100525;28;20036;-70
2020/12/21 02:46:34;;;;;;;21.35;13.60;;;;;;;;;;5094764;28;20044;-71
2020/12/21 02:49:00;;;;;;;26.55;14.73;;;;;;;;;;5080730;28;20038;-70
2020/12/21 02:51:26;;;;;;;23.42;14.20;;;;;;;;;;5113078;28;20016;-70
2020/12/21 02:53:52;;;;;;;25.85;13.48;;;;;;;;;;5110862;28;20050;-69
2020/12/21 02:56:19;;;;;;;30.77;13.73;;;;;;;;;;5094966;28;20586;-69
2020/12/21 02:58:45;;;;;;;25.73;13.10;;;;;;;;;;5094966;28;20356;-70
2020/12/21 03:01:11;;;;;;;21.42;13.90;;;;;;;;;;5076602;28;20027;-69
2020/12/21 03:03:37;;;;;;;20.52;12.90;;;;;;;;;;5076677;28;20100;-69
2020/12/21 03:06:03;;;;;;;23.90;13.85;;;;;;;;;;5098962;28;20065;-69
2020/12/21 03:08:29;;;;;;;23.73;13.70;;;;;;;;;;5115034;28;20035;-69
2020/12/21 03:10:55;;;;;;;20.25;13.40;;;;;;;;;;5096712;28;20023;-69
2020/12/21 03:13:21;;;;;;;20.38;13.40;;;;;;;;;;5114986;28;20020;-69
2020/12/21 03:15:47;;;;;;;23.58;13.88;;;;;;;;;;5114720;28;20041;-68
2020/12/21 03:18:13;;;;;;;20.30;13.20;;;;;;;;;;5115126;28;20087;-69
2020/12/21 03:20:39;;;;;;;20.92;13.52;;;;;;;;;;5114718;28;20027;-70
2020/12/21 03:23:05;;;;;;;36.92;13.25;;;;;;;;;;5096323;28;20084;-69
2020/12/21 03:25:31;;;;;;;22.77;13.60;;;;;;;;;;5098521;27;20012;-70
2020/12/21 03:27:57;;;;;;;22.85;13.23;;;;;;;;;;5116535;27;20035;-70
2020/12/21 03:30:23;;;;;;;23.77;14.13;;;;;;;;;;5135420;27;20019;-70
2020/12/21 03:32:49;;;;;;;24.83;14.75;;;;;;;;;;5116005;27;20027;-70
2020/12/21 03:35:15;;;;;;;26.85;14.35;;;;;;;;;;5116805;27;20024;-71
2020/12/21 03:37:41;;;;;;;20.88;14.77;;;;;;;;;;5134998;27;20106;-70
2020/12/21 03:40:08;;;;;;;20.83;12.90;;;;;;;;;;5134928;27;20019;-70
2020/12/21 03:42:34;;;;;;;18.75;13.52;;;;;;;;;;5134992;27;20534;-69
2020/12/21 03:45:00;;;;;;;27.08;14.73;;;;;;;;;;5134965;27;20106;-69
2020/12/21 03:47:27;;;;;;;20.80;13.68;;;;;;;;;;5116243;27;20039;-69
2020/12/21 03:49:53;;;;;;;22.02;13.82;;;;;;;;;;5134882;27;20532;-70
2020/12/21 03:52:19;;;;;;;21.35;13.88;;;;;;;;;;5116029;27;20019;-69
2020/12/21 03:54:45;;;;;;;23.88;14.68;;;;;;;;;;5116337;27;20406;-71
2020/12/21 03:57:11;;;;;;;18.75;12.73;;;;;;;;;;5116329;27;20019;-71
2020/12/21 03:59:37;;;;;;;21.40;14.02;;;;;;;;;;5116313;27;20023;-70
2020/12/21 04:02:04;;;;;;;20.38;13.95;;;;;;;;;;5116281;27;20020;-70
2020/12/21 04:04:30;;;;;;;22.23;14.45;;;;;;;;;;5134693;27;20107;-71
2020/12/21 04:06:56;;;;;;;21.38;14.07;;;;;;;;;;5134514;27;20047;-71
2020/12/21 04:09:22;;;;;;;20.70;13.82;;;;;;;;;;5116081;27;20035;-71
2020/12/21 04:11:48;;;;;;;20.15;13.93;;;;;;;;;;5134489;27;20019;-70
2020/12/21 04:14:14;;;;;;;21.48;14.20;;;;;;;;;;5134424;27;20027;-71
2020/12/21 04:16:40;;;;;;;23.10;14.32;;;;;;;;;;5115935;27;20027;-71
2020/12/21 04:19:06;;;;;;;22.23;13.73;;;;;;;;;;5134335;27;20077;-69
2020/12/21 04:21:32;;;;;;;26.70;14.35;;;;;;;;;;5134152;27;20019;-70
2020/12/21 04:23:58;;;;;;;18.95;12.90;;;;;;;;;;5134162;27;20015;-70
2020/12/21 04:26:24;;;;;;;18.60;12.43;;;;;;;;;;5115787;27;20031;-70
2020/12/21 04:28:50;;;;;;;23.17;15.13;;;;;;;;;;5134091;27;20023;-70
2020/12/21 04:31:16;;;;;;;26.63;14.27;;;;;;;;;;5133763;27;20027;-70
2020/12/21 04:33:42;;;;;;;21.60;13.10;;;;;;;;;;5115483;27;20415;-70
2020/12/21 04:36:12;;;;;;;19.95;13.70;;;;;;;;;;5115453;27;20038;-70
2020/12/21 04:38:39;;;;;;;21.33;13.57;;;;;;;;;;5133919;27;20071;-70
2020/12/21 04:41:06;;;;;;;20.50;14.18;;;;;;;;;;5133968;27;20471;-70
2020/12/21 04:43:33;;;;;;;19.80;13.20;;;;;;;;;;5133877;27;20506;-71
2020/12/21 04:46:05;;;;;;;22.05;14.38;;;;;;;;;;5115155;27;20114;-70
2020/12/21 04:48:31;;;;;;;22.98;13.63;;;;;;;;;;5133688;27;20031;-70
2020/12/21 04:50:57;;;;;;;22.10;14.27;;;;;;;;;;5115431;27;20012;-69
2020/12/21 04:53:23;;;;;;;19.92;13.35;;;;;;;;;;5115361;27;20080;-70
2020/12/21 04:55:50;;;;;;;21.23;13.90;;;;;;;;;;5133728;27;20026;-71
2020/12/21 04:58:16;;;;;;;19.40;13.52;;;;;;;;;;5133660;27;20049;-71
2020/12/21 05:00:42;;;;;;;19.65;13.45;;;;;;;;;;5133431;27;20023;-71
2020/12/21 05:03:08;;;;;;;22.17;14.13;;;;;;;;;;5133249;27;20023;-70
2020/12/21 05:05:35;;;;;;;20.88;13.15;;;;;;;;;;5133276;27;20024;-70
2020/12/21 05:08:27;;;;;;;23.95;14.85;;;;;;;;;;5133244;27;20028;-70
2020/12/21 05:11:00;;;;;;;23.00;14.25;;;;;;;;;;5110379;27;20042;-69
2020/12/21 05:13:27;;;;;;;19.73;13.38;;;;;;;;;;5133061;27;20023;-69
2020/12/21 05:15:54;;;;;;;20.98;14.05;;;;;;;;;;5133297;27;20061;-69
2020/12/21 05:18:24;;;;;;;21.40;14.27;;;;;;;;;;5133114;27;20019;-70
2020/12/21 05:20:56;;;;;;;19.48;13.10;;;;;;;;;;5133217;27;20016;-71
2020/12/21 05:23:22;;;;;;;20.63;13.75;;;;;;;;;;5114898;27;20027;-70
2020/12/21 05:25:57;;;;;;;19.98;13.35;;;;;;;;;;5128347;27;20027;-70
2020/12/21 05:28:26;;;;;;;22.23;14.30;;;;;;;;;;5093556;28;20074;-70
2020/12/21 05:30:55;;;;;;;21.77;14.45;;;;;;;;;;5112425;28;20449;-70
2020/12/21 05:33:21;;;;;;;21.60;14.00;;;;;;;;;;5112519;28;20242;-70
2020/12/21 05:35:48;;;;;;;20.48;13.60;;;;;;;;;;5112303;28;20027;-70
2020/12/21 05:38:24;;;;;;;21.45;14.55;;;;;;;;;;5112303;28;20023;-70
2020/12/21 05:40:51;;;;;;;25.42;13.98;;;;;;;;;;5112034;28;20486;-70
2020/12/21 05:43:24;;;;;;;21.27;14.02;;;;;;;;;;5112074;28;20418;-70
2020/12/21 05:46:00;;;;;;;23.52;14.55;;;;;;;;;;5112111;28;20018;-70
2020/12/21 05:48:28;;;;;;;23.38;15.35;;;;;;;;;;5093866;28;20090;-69
2020/12/21 05:50:55;;;;;;;21.80;14.13;;;;;;;;;;5112117;28;20103;-70
2020/12/21 05:53:21;;;;;;;20.35;13.73;;;;;;;;;;5112151;28;20038;-70
2020/12/21 05:55:47;;;;;;;21.50;14.25;;;;;;;;;;5111748;28;20032;-70
2020/12/21 05:58:13;;;;;;;21.13;14.60;;;;;;;;;;5112080;28;20016;-70
2020/12/21 06:00:40;;;;;;;20.58;14.10;;;;;;;;;;5112023;28;20034;-70
2020/12/21 06:03:08;;;;;;;22.83;15.00;;;;;;;;;;5093895;28;20050;-70
2020/12/21 06:05:35;;;;;;;21.38;13.55;;;;;;;;;;5093747;28;20051;-70
2020/12/21 06:08:02;;;;;;;22.45;14.60;;;;;;;;;;5111730;28;20067;-70
2020/12/21 06:10:29;;;;;;;21.15;14.07;;;;;;;;;;5111694;28;20020;-70
2020/12/21 06:12:56;;;;;;;21.08;14.57;;;;;;;;;;5111722;28;20024;-70
2020/12/21 06:15:26;;;;;;;21.77;14.93;;;;;;;;;;5111994;28;20095;-70
2020/12/21 06:17:52;;;;;;;21.05;14.85;;;;;;;;;;5093641;28;20034;-70
2020/12/21 06:20:18;;;;;;;19.50;14.48;;;;;;;;;;5093487;28;20068;-70
2020/12/21 06:22:44;;;;;;;22.13;14.55;;;;;;;;;;5108104;28;20042;-70
2020/12/21 06:25:20;;;;;;;22.27;14.68;;;;;;;;;;5111647;28;20413;-70
2020/12/21 06:27:46;;;;;;;20.35;13.13;;;;;;;;;;5111498;28;20028;-70
2020/12/21 06:30:14;;;;;;;18.00;13.27;;;;;;;;;;5111655;28;20031;-70
2020/12/21 06:32:40;;;;;;;20.00;13.60;;;;;;;;;;5111705;28;20456;-70
2020/12/21 06:35:18;;;;;;;20.40;14.20;;;;;;;;;;5111561;28;20019;-70
2020/12/21 06:38:00;;;;;;;25.88;13.95;;;;;;;;;;5111417;28;20370;-70
2020/12/21 06:40:30;;;;;;;21.08;14.57;;;;;;;;;;5111586;28;20023;-70
2020/12/21 06:43:07;;;;;;;22.25;14.15;;;;;;;;;;5111681;28;20020;-71
2020/12/21 06:45:36;;;;;;;20.25;14.02;;;;;;;;;;5111508;28;20085;-71
2020/12/21 06:48:02;;;;;;;19.92;14.05;;;;;;;;;;5111145;28;20058;-71
2020/12/21 06:50:28;;;;;;;23.05;14.57;;;;;;;;;;5111623;28;20020;-71
2020/12/21 06:52:54;;;;;;;21.95;14.10;;;;;;;;;;5111691;28;20058;-70
2020/12/21 06:55:20;;;;;;;20.13;13.85;;;;;;;;;;5111565;28;20031;-71
2020/12/21 06:57:53;;;;;;;20.75;14.52;;;;;;;;;;5093201;28;20024;-71
2020/12/21 07:00:22;;;;;;;19.90;13.70;;;;;;;;;;5111542;28;20693;-71
2020/12/21 07:02:51;;;;;;;20.20;13.13;;;;;;;;;;5111539;28;20030;-71
2020/12/21 07:05:18;;;;;;;20.70;13.38;;;;;;;;;;5111582;28;20032;-70
2020/12/21 07:07:44;;;;;;;20.08;13.55;;;;;;;;;;5095641;28;20089;-71
2020/12/21 07:10:13;;;;;;;19.83;13.02;;;;;;;;;;5096755;28;20078;-72
2020/12/21 07:12:39;;;;;;;18.95;13.23;;;;;;;;;;5115014;28;20019;-70
2020/12/21 07:15:05;;;;;;;18.65;12.85;;;;;;;;;;5114916;28;20026;-71
2020/12/21 07:17:33;;;;;;;19.50;13.07;;;;;;;;;;5114857;28;20020;-72
2020/12/21 07:19:59;;;;;;;17.95;13.13;;;;;;;;;;5114803;28;20031;-71
2020/12/21 07:22:25;;;;;;;18.73;13.05;;;;;;;;;;5096685;28;20107;-71
2020/12/21 07:24:52;;;;;;;21.48;12.82;;;;;;;;;;5096524;28;20024;-71
2020/12/21 07:27:18;;;;;;;21.02;12.30;;;;;;;;;;5114547;28;20055;-70
2020/12/21 07:29:44;;;;;;;18.27;12.35;;;;;;;;;;5114627;28;20047;-71
2020/12/21 07:32:10;;;;;;;18.45;12.48;;;;;;;;;;5114520;28;20016;-70
2020/12/21 07:34:37;;;;;;;19.25;12.18;;;;;;;;;;5114431;28;20381;-70
2020/12/21 07:37:07;;;;;;;18.85;11.60;;;;;;;;;;5114526;28;20091;-70
2020/12/21 07:39:34;;;;;;;19.08;11.10;;;;;;;;;;5096204;28;20031;-71
2020/12/21 07:42:03;;;;;;;17.58;11.45;;;;;;;;;;5114447;28;20051;-70
2020/12/21 07:44:31;;;;;;;19.27;11.73;;;;;;;;;;5114425;28;20027;-70
2020/12/21 07:47:26;;;;;;;20.10;11.35;;;;;;;;;;5114055;28;20043;-70
2020/12/21 07:49:53;;;;;;;18.58;11.82;;;;;;;;;;5096637;28;20042;-70
2020/12/21 07:52:19;;;;;;;16.25;11.00;;;;;;;;;;5096007;28;20022;-70
2020/12/21 07:54:45;;;;;;;19.23;11.77;;;;;;;;;;5114433;28;20034;-70
2020/12/21 07:57:14;;;;;;;15.48;10.75;;;;;;;;;;5114121;28;20020;-71
2020/12/21 07:59:41;;;;;;;17.73;11.05;;;;;;;;;;5114204;28;20535;-71
2020/12/21 08:02:08;;;;;;;15.80;10.48;;;;;;;;;;5095642;28;20409;-70
2020/12/21 08:04:34;;;;;;;16.67;10.77;;;;;;;;;;5095675;28;20382;-71
2020/12/21 08:07:07;;;;;;;18.50;11.18;;;;;;;;;;5095606;28;20123;-71
2020/12/21 08:09:37;;;;;;;16.77;10.65;;;;;;;;;;5114045;28;20058;-71
2020/12/21 08:12:10;;;;;;;18.38;12.07;;;;;;;;;;5113949;28;20494;-71
2020/12/21 08:14:36;;;;;;;16.20;10.63;;;;;;;;;;5113782;28;20630;-71
2020/12/21 08:17:11;;;;;;;16.67;10.90;;;;;;;;;;5113487;28;20036;-71
2020/12/21 08:19:54;;;;;;;19.17;11.52;;;;;;;;;;5095224;28;20016;-70
2020/12/21 08:22:24;;;;;;;16.23;10.32;;;;;;;;;;5111842;28;20048;-70
2020/12/21 08:25:19;;;;;;;18.60;12.02;;;;;;;;;;5113446;28;20098;-71
2020/12/21 08:27:52;;;;;;;17.05;11.10;;;;;;;;;;5078016;28;20062;-70
2020/12/21 08:30:19;;;;;;;16.90;10.18;;;;;;;;;;5087237;28;20024;-75
2020/12/21 08:32:46;;;;;;;17.42;10.77;;;;;;;;;;5108558;28;20018;-71
2020/12/21 08:35:12;;;;;;;16.15;10.25;;;;;;;;;;5113091;28;20050;-71
2020/12/21 08:37:38;;;;;;;21.52;10.93;;;;;;;;;;5074777;28;20073;-71
2020/12/21 08:40:15;;;;;;;15.38;10.38;;;;;;;;;;5092803;28;20016;-70
2020/12/21 08:42:41;;;;;;;19.15;10.15;;;;;;;;;;5074623;28;20036;-71
2020/12/21 08:45:08;;;;;;;16.45;10.55;;;;;;;;;;5092709;28;20103;-71
2020/12/21 08:47:34;;;;;;;15.32;10.48;;;;;;;;;;5077182;28;20367;-71
2020/12/21 08:50:02;;;;;;;15.90;10.10;;;;;;;;;;5112996;28;20133;-71
2020/12/21 08:52:28;;;;;;;17.58;10.73;;;;;;;;;;5112929;28;20466;-70
2020/12/21 08:54:54;;;;;;;15.00;10.02;;;;;;;;;;5112907;28;20541;-70
2020/12/21 08:57:20;;;;;;;15.27;10.18;;;;;;;;;;5112933;28;20037;-70
2020/12/21 08:59:46;;;;;;;15.23;10.43;;;;;;;;;;5112758;28;20027;-70
2020/12/21 09:02:12;;;;;;;17.60;10.85;;;;;;;;;;5094466;28;20030;-71
2020/12/21 09:04:38;;;;;;;15.15;10.55;;;;;;;;;;5094362;28;20023;-70
2020/12/21 09:07:04;;;;;;;16.27;10.38;;;;;;;;;;5112528;28;20093;-70
2020/12/21 09:09:30;;;;;;;14.95;9.95;;;;;;;;;;5112565;28;20027;-70
2020/12/21 09:11:56;;;;;;;15.85;10.02;;;;;;;;;;5112602;28;20023;-70
2020/12/21 09:14:25;;;;;;;15.35;10.40;;;;;;;;;;5112481;28;20034;-71
2020/12/21 09:16:52;;;;;;;14.65;10.10;;;;;;;;;;5112519;28;20488;-70
2020/12/21 09:19:19;;;;;;;14.65;10.07;;;;;;;;;;5094116;28;20475;-71
2020/12/21 09:21:45;;;;;;;14.55;9.88;;;;;;;;;;5112329;28;20046;-70
2020/12/21 09:24:11;;;;;;;18.67;10.63;;;;;;;;;;5108308;28;20016;-70
2020/12/21 09:26:37;;;;;;;15.48;10.40;;;;;;;;;;5091878;28;20059;-70
2020/12/21 09:29:03;;;;;;;15.02;9.77;;;;;;;;;;5091241;28;20039;-70
2020/12/21 09:31:29;;;;;;;17.13;10.73;;;;;;;;;;5091878;28;20020;-70
2020/12/21 09:33:56;;;;;;;14.88;10.40;;;;;;;;;;5091809;28;20069;-71
2020/12/21 09:36:22;;;;;;;15.93;10.48;;;;;;;;;;5073377;28;20510;-70
2020/12/21 09:38:49;;;;;;;16.13;10.85;;;;;;;;;;5091565;28;20035;-70
2020/12/21 09:41:20;;;;;;;15.48;10.20;;;;;;;;;;5091615;28;20516;-70
2020/12/21 09:43:49;;;;;;;15.10;10.05;;;;;;;;;;5091775;28;20171;-69
2020/12/21 09:46:19;;;;;;;16.40;11.02;;;;;;;;;;5091518;28;20499;-70
2020/12/21 09:48:47;;;;;;;17.15;10.45;;;;;;;;;;5073763;28;20052;-70
2020/12/21 09:51:13;;;;;;;17.55;11.25;;;;;;;;;;5073332;28;20028;-70
2020/12/21 09:53:40;;;;;;;18.40;11.00;;;;;;;;;;5091547;28;20021;-70
2020/12/21 09:56:08;;;;;;;23.88;11.90;;;;;;;;;;5091411;28;20058;-70
2020/12/21 09:58:34;;;;;;;23.23;11.85;;;;;;;;;;5073201;28;20486;-70
2020/12/21 10:01:00;;;;;;;20.98;11.88;;;;;;;;;;5091310;28;20008;-70
2020/12/21 10:03:26;;;;;;;24.30;12.23;;;;;;;;;;5091468;28;20099;-70
2020/12/21 10:05:52;;;;;;;25.02;11.88;;;;;;;;;;5091195;28;20020;-69
2020/12/21 10:08:18;;;;;;;22.73;12.27;;;;;;;;;;5090912;28;20040;-71
2020/12/21 10:10:51;;;;;;;24.20;11.55;;;;;;;;;;5091206;28;20028;-71
2020/12/21 10:13:17;;;;;;;16.58;10.32;;;;;;;;;;5091573;28;20028;-83
2020/12/21 10:15:43;;;;;;;22.70;13.20;;;;;;;;;;5092520;28;20016;-71
2020/12/21 10:18:09;;;;;;;22.60;11.30;;;;;;;;;;5092821;28;20032;-72
2020/12/21 10:20:35;;;;;;;30.50;11.65;;;;;;;;;;5074068;28;20058;-71
2020/12/21 10:23:01;;;;;;;21.42;11.95;;;;;;;;;;5091273;28;20028;-71
2020/12/21 10:25:27;;;;;;;16.98;11.20;;;;;;;;;;5105516;28;20053;-72
2020/12/21 10:27:53;;;;;;;25.02;11.70;;;;;;;;;;5093087;28;20394;-71
2020/12/21 10:30:19;;;;;;;24.70;11.60;;;;;;;;;;5111392;28;20546;-72
2020/12/21 10:32:45;;;;;;;22.63;11.60;;;;;;;;;;5093325;28;20027;-71
2020/12/21 10:35:11;;;;;;;21.13;12.48;;;;;;;;;;5093221;28;20051;-71
2020/12/21 10:37:37;;;;;;;21.02;11.95;;;;;;;;;;5092871;28;20386;-71
2020/12/21 10:40:04;;;;;;;21.65;12.02;;;;;;;;;;5111343;28;20030;-72
2020/12/21 10:42:30;;;;;;;20.45;12.00;;;;;;;;;;5097137;28;20016;-71
2020/12/21 10:44:56;;;;;;;17.60;11.23;;;;;;;;;;5097215;28;20034;-72
2020/12/21 10:47:22;;;;;;;18.88;11.75;;;;;;;;;;5115260;28;20047;-72
2020/12/21 10:49:48;;;;;;;20.25;11.57;;;;;;;;;;5115416;28;20497;-71
2020/12/21 10:52:15;;;;;;;20.00;11.20;;;;;;;;;;5115434;28;20066;-71
2020/12/21 10:54:41;;;;;;;20.92;11.40;;;;;;;;;;5115254;28;20050;-71
2020/12/21 10:57:07;;;;;;;18.88;11.77;;;;;;;;;;5114980;28;20111;-71
2020/12/21 10:59:33;;;;;;;17.10;11.35;;;;;;;;;;5114955;28;20039;-71
2020/12/21 11:02:00;;;;;;;17.42;11.30;;;;;;;;;;5096787;28;20382;-71
2020/12/21 11:04:26;;;;;;;19.83;12.48;;;;;;;;;;5115013;28;20027;-71
2020/12/21 11:06:52;;;;;;;17.90;10.95;;;;;;;;;;5096569;28;20027;-72
2020/12/21 11:09:18;;;;;;;20.70;10.88;;;;;;;;;;5096747;28;20032;-71
2020/12/21 11:11:44;;;;;;;17.13;11.45;;;;;;;;;;5114804;28;20072;-71
2020/12/21 11:14:10;;;;;;;20.30;12.13;;;;;;;;;;5115027;28;20042;-71
2020/12/21 11:16:36;;;;;;;16.77;11.27;;;;;;;;;;5115030;28;20030;-71
2020/12/21 11:19:02;;;;;;;17.20;11.02;;;;;;;;;;5114839;28;20023;-71
2020/12/21 11:21:28;;;;;;;17.85;11.85;;;;;;;;;;5114791;28;20024;-71
2020/12/21 11:23:54;;;;;;;15.65;10.63;;;;;;;;;;5113378;28;20025;-71
2020/12/21 11:26:20;;;;;;;18.23;12.35;;;;;;;;;;5094314;28;20039;-71
2020/12/21 11:28:49;;;;;;;19.63;12.32;;;;;;;;;;5094124;28;20039;-71
2020/12/21 11:31:16;;;;;;;17.98;11.30;;;;;;;;;;5075775;28;20027;-71
2020/12/21 11:33:42;;;;;;;17.88;11.40;;;;;;;;;;5093854;28;20251;-71
2020/12/21 11:36:08;;;;;;;16.58;11.63;;;;;;;;;;5093974;28;20099;-72
2020/12/21 11:38:34;;;;;;;16.65;11.50;;;;;;;;;;5094035;28;20020;-71
2020/12/21 11:41:00;;;;;;;21.67;11.40;;;;;;;;;;5075731;28;20032;-71
2020/12/21 11:43:26;;;;;;;20.50;11.43;;;;;;;;;;5094053;28;20019;-71
2020/12/21 11:45:53;;;;;;;18.85;12.05;;;;;;;;;;5093788;28;20054;-71
2020/12/21 11:48:19;;;;;;;20.20;11.30;;;;;;;;;;5069871;28;20103;-71
2020/12/21 11:50:45;;;;;;;20.10;11.80;;;;;;;;;;5073551;28;20468;-71
2020/12/21 11:53:11;;;;;;;21.02;12.40;;;;;;;;;;5072949;28;20039;-71
2020/12/21 11:55:37;;;;;;;19.30;11.38;;;;;;;;;;5072019;28;20070;-72
2020/12/21 11:58:03;;;;;;;20.67;12.88;;;;;;;;;;5073519;28;20028;-71
2020/12/21 12:00:29;;;;;;;17.20;11.02;;;;;;;;;;5073419;28;20078;-71
2020/12/21 12:02:55;;;;;;;18.58;11.57;;;;;;;;;;5073248;28;20052;-71
2020/12/21 12:05:21;;;;;;;22.67;12.05;;;;;;;;;;5071837;28;20039;-71
2020/12/21 12:07:47;;;;;;;20.70;11.80;;;;;;;;;;5071789;28;20032;-71
2020/12/21 12:10:13;;;;;;;17.92;10.98;;;;;;;;;;5073109;28;20051;-71
2020/12/21 12:12:39;;;;;;;20.02;11.63;;;;;;;;;;5073124;28;20056;-72
2020/12/21 12:15:06;;;;;;;18.35;11.32;;;;;;;;;;5073161;28;20025;-71
2020/12/21 12:17:32;;;;;;;17.17;10.55;;;;;;;;;;5072957;28;20023;-71
2020/12/21 12:19:58;;;;;;;18.17;11.32;;;;;;;;;;5072997;28;20074;-71
2020/12/21 12:22:24;;;;;;;16.83;11.23;;;;;;;;;;5071360;28;20017;-71
2020/12/21 12:24:50;;;;;;;16.88;11.35;;;;;;;;;;5081715;28;20028;-70
2020/12/21 12:27:16;;;;;;;20.20;11.73;;;;;;;;;;5092875;28;20016;-71
2020/12/21 12:29:42;;;;;;;17.92;11.23;;;;;;;;;;5092737;28;20418;-71
2020/12/21 12:32:10;;;;;;;18.83;11.60;;;;;;;;;;5092971;28;20043;-71
2020/12/21 12:34:36;;;;;;;19.02;11.38;;;;;;;;;;5091545;28;20026;-71
2020/12/21 12:37:02;;;;;;;16.50;10.95;;;;;;;;;;5092853;28;20055;-72
2020/12/21 12:39:28;;;;;;;16.85;10.55;;;;;;;;;;5092676;28;20020;-71
2020/12/21 12:41:54;;;;;;;18.80;11.95;;;;;;;;;;5091296;28;20024;-71
2020/12/21 12:44:20;;;;;;;18.45;11.38;;;;;;;;;;5091417;28;20028;-72
2020/12/21 12:46:47;;;;;;;15.82;10.30;;;;;;;;;;5096966;28;20036;-71
2020/12/21 12:49:13;;;;;;;18.50;11.95;;;;;;;;;;5094907;28;20093;-71
2020/12/21 12:51:39;;;;;;;16.27;10.95;;;;;;;;;;5094572;28;20024;-71
2020/12/21 12:54:05;;;;;;;15.75;10.48;;;;;;;;;;5094582;28;20042;-71
2020/12/21 12:56:31;;;;;;;17.17;11.35;;;;;;;;;;5112952;28;20016;-71
2020/12/21 12:58:57;;;;;;;16.23;11.30;;;;;;;;;;5094539;28;20027;-71
2020/12/21 13:01:23;;;;;;;16.63;11.05;;;;;;;;;;5112518;28;20399;-71
2020/12/21 13:03:50;;;;;;;15.63;10.38;;;;;;;;;;5111785;28;20062;-71
2020/12/21 13:06:16;;;;;;;17.15;10.23;;;;;;;;;;5112857;28;20425;-71
2020/12/21 13:08:42;;;;;;;15.15;10.48;;;;;;;;;;5112459;28;20428;-71
2020/12/21 13:11:09;;;;;;;13.65;9.18;;;;;;;;;;5094116;28;20015;-71
2020/12/21 13:13:36;;;;;;;14.60;10.32;;;;;;;;;;5112342;28;20030;-71
2020/12/21 13:16:02;;;;;;;15.63;10.25;;;;;;;;;;5112459;28;20137;-71
2020/12/21 13:18:28;;;;;;;14.70;9.65;;;;;;;;;;5112508;28;20528;-71
2020/12/21 13:20:54;;;;;;;15.75;10.00;;;;;;;;;;5094098;28;20051;-71
2020/12/21 13:23:21;;;;;;;14.98;9.38;;;;;;;;;;5112432;28;20023;-71
2020/12/21 13:25:49;;;;;;;14.05;9.65;;;;;;;;;;5094859;28;20097;-71
2020/12/21 13:28:15;;;;;;;15.68;9.38;;;;;;;;;;5091559;28;20039;-71
2020/12/21 13:30:41;;;;;;;14.70;9.70;;;;;;;;;;5091749;28;20022;-71
2020/12/21 13:33:08;;;;;;;14.25;10.07;;;;;;;;;;5073776;28;20104;-71
2020/12/21 13:35:34;;;;;;;13.85;9.25;;;;;;;;;;5073598;28;20020;-71
2020/12/21 13:38:00;;;;;;;15.00;9.55;;;;;;;;;;5073720;28;20028;-72
2020/12/21 13:40:26;;;;;;;16.15;10.43;;;;;;;;;;5073577;28;20115;-71
2020/12/21 13:42:52;;;;;;;14.75;9.75;;;;;;;;;;5091705;28;20052;-71
2020/12/21 13:45:18;;;;;;;12.38;8.73;;;;;;;;;;5091625;28;20027;-71
2020/12/21 13:47:44;;;;;;;13.82;9.15;;;;;;;;;;5091295;28;20047;-71
2020/12/21 13:50:10;;;;;;;14.77;9.13;;;;;;;;;;5091484;28;20479;-71
2020/12/21 13:52:36;;;;;;;12.90;9.05;;;;;;;;;;5091414;28;20040;-71
2020/12/21 13:55:03;;;;;;;13.27;9.45;;;;;;;;;;5073289;28;20020;-71
2020/12/21 13:57:29;;;;;;;14.25;9.40;;;;;;;;;;5091444;28;20027;-70
2020/12/21 13:59:56;;;;;;;14.80;9.75;;;;;;;;;;5091576;28;20103;-71
2020/12/21 14:02:22;;;;;;;14.90;9.18;;;;;;;;;;5091473;28;20079;-71
2020/12/21 14:04:48;;;;;;;14.70;9.50;;;;;;;;;;5091246;28;20051;-71
2020/12/21 14:07:16;;;;;;;14.25;9.27;;;;;;;;;;5090999;28;20023;-71
2020/12/21 14:09:42;;;;;;;12.75;8.90;;;;;;;;;;5073465;28;20161;-71
2020/12/21 14:12:08;;;;;;;13.13;9.73;;;;;;;;;;5091024;28;20073;-71
2020/12/21 14:14:34;;;;;;;12.32;8.98;;;;;;;;;;5091286;28;20024;-71
2020/12/21 14:17:00;;;;;;;15.68;9.45;;;;;;;;;;5094757;28;20445;-71